Time;durP1;ratioP1;P1;durP2;ratioP2;P2;SDS_P1;SDS_P2;PMS_P1;PMS_P2;Temp;Humidity;BMP_temperature;BMP_pressure;BME280_temperature;BME280_humidity;BME280_pressure;Samples;Min_cycle;Max_cycle;Signal;HPM_P1;HPM_P2
2023/12/19 00:00:36;;;;;;;26.10;12.38;;;8.50;99.90;;;;;;5093584;28;20070;-73
2023/12/19 00:03:01;;;;;;;27.40;11.97;;;8.50;99.90;;;;;;5093355;28;20491;-69
2023/12/19 00:05:27;;;;;;;28.90;12.23;;;8.50;99.90;;;;;;5095773;28;20051;-72
2023/12/19 00:07:53;;;;;;;23.93;11.60;;;8.50;99.90;;;;;;5097791;28;20040;-73
2023/12/19 00:10:18;;;;;;;28.87;12.47;;;8.50;99.90;;;;;;5097810;28;20079;-74
2023/12/19 00:12:44;;;;;;;27.07;12.67;;;8.50;99.90;;;;;;5096744;28;20048;-74
2023/12/19 00:15:10;;;;;;;24.17;11.13;;;8.40;99.90;;;;;;5097534;28;20123;-68
2023/12/19 00:17:36;;;;;;;24.13;10.70;;;8.50;99.90;;;;;;5097252;28;20090;-73
2023/12/19 00:20:02;;;;;;;25.10;11.30;;;8.50;99.90;;;;;;5097979;28;20048;-74
2023/12/19 00:22:28;;;;;;;20.63;10.05;;;8.50;99.90;;;;;;5097413;28;20070;-74
2023/12/19 00:24:54;;;;;;;20.20;9.73;;;8.50;99.90;;;;;;5097395;28;20475;-70
2023/12/19 00:27:19;;;;;;;19.40;9.20;;;8.50;99.90;;;;;;5097243;28;20040;-70
2023/12/19 00:29:45;;;;;;;21.83;10.57;;;8.50;99.90;;;;;;5096149;28;20051;-70
2023/12/19 00:32:11;;;;;;;19.67;9.87;;;8.50;99.90;;;;;;5097056;28;20055;-73
2023/12/19 00:34:36;;;;;;;19.10;9.43;;;8.50;99.90;;;;;;5097473;28;20447;-73
2023/12/19 00:37:02;;;;;;;19.80;10.13;;;8.50;99.90;;;;;;5097032;28;20048;-73
2023/12/19 00:39:28;;;;;;;18.93;9.13;;;8.50;99.90;;;;;;5097106;28;20048;-73
2023/12/19 00:41:54;;;;;;;21.63;9.23;;;8.50;99.90;;;;;;5097070;28;20036;-72
2023/12/19 00:44:20;;;;;;;21.80;9.10;;;8.60;99.90;;;;;;5097094;28;20123;-71
2023/12/19 00:46:45;;;;;;;18.40;10.17;;;8.60;99.90;;;;;;5096866;28;20656;-71
2023/12/19 00:49:11;;;;;;;18.40;9.53;;;8.60;99.90;;;;;;5129795;27;20092;-73
2023/12/19 00:51:37;;;;;;;20.90;9.80;;;8.60;99.90;;;;;;5096897;28;20044;-73
2023/12/19 00:54:03;;;;;;;18.73;9.10;;;8.60;99.90;;;;;;5096890;28;20279;-74
2023/12/19 00:56:29;;;;;;;19.90;8.95;;;8.60;99.90;;;;;;5096588;28;20044;-73
2023/12/19 00:58:55;;;;;;;20.83;9.13;;;8.60;99.90;;;;;;5096718;28;20407;-73
2023/12/19 01:01:24;;;;;;;20.03;9.10;;;8.60;99.90;;;;;;5096226;28;20048;-71
2023/12/19 01:03:51;;;;;;;19.42;8.73;;;8.60;99.90;;;;;;5096680;28;20048;-73
2023/12/19 01:06:16;;;;;;;17.75;8.90;;;8.60;99.90;;;;;;5096634;28;20040;-73
2023/12/19 01:08:42;;;;;;;21.43;9.47;;;8.60;99.90;;;;;;5095212;28;20108;-68
2023/12/19 01:11:09;;;;;;;19.40;9.03;;;8.60;99.90;;;;;;5095682;28;20059;-72
2023/12/19 01:13:38;;;;;;;19.48;9.65;;;8.70;99.90;;;;;;5096430;28;20525;-73
2023/12/19 01:16:04;;;;;;;21.58;9.27;;;8.60;99.90;;;;;;5095894;28;20047;-72
2023/12/19 01:18:30;;;;;;;19.60;9.40;;;8.60;99.90;;;;;;5096349;28;20399;-72
2023/12/19 01:20:56;;;;;;;20.80;9.07;;;8.60;99.90;;;;;;5096348;28;20040;-72
2023/12/19 01:23:23;;;;;;;24.40;9.83;;;8.70;99.90;;;;;;5096717;28;20040;-72
2023/12/19 01:25:48;;;;;;;;;;;8.60;99.90;;;;;;5096636;28;20133;-71
2023/12/19 01:28:14;;;;;;;18.98;8.85;;;8.60;99.90;;;;;;5096187;28;19974;-73
2023/12/19 01:30:40;;;;;;;20.40;9.63;;;8.60;99.90;;;;;;5095930;28;20048;-72
2023/12/19 01:33:08;;;;;;;19.52;8.52;;;8.60;99.90;;;;;;5096159;28;20487;-74
2023/12/19 01:35:34;;;;;;;16.08;7.93;;;8.60;99.90;;;;;;5096435;28;20136;-69
2023/12/19 01:38:00;;;;;;;18.73;8.97;;;8.60;99.90;;;;;;5095897;28;20509;-72
2023/12/19 01:40:31;;;;;;;21.43;7.90;;;8.60;99.90;;;;;;5095865;28;20044;-70
2023/12/19 01:42:57;;;;;;;19.23;8.82;;;8.70;99.90;;;;;;5095867;28;20048;-74
2023/12/19 01:45:26;;;;;;;19.25;8.90;;;8.70;99.90;;;;;;5095730;28;20098;-68
2023/12/19 01:47:52;;;;;;;17.23;8.45;;;8.70;99.90;;;;;;5095464;28;20124;-72
2023/12/19 01:50:18;;;;;;;14.67;7.90;;;8.70;99.90;;;;;;5094797;28;20433;-73
2023/12/19 01:52:57;;;;;;;16.23;7.32;;;8.70;99.90;;;;;;5095648;28;20402;-70
2023/12/19 01:55:24;;;;;;;17.40;8.25;;;8.70;99.90;;;;;;5095518;28;20069;-69
2023/12/19 01:57:51;;;;;;;15.98;8.02;;;8.70;99.90;;;;;;5095473;28;20036;-73
2023/12/19 02:00:17;;;;;;;16.80;7.50;;;8.70;99.90;;;;;;5095587;28;20051;-72
2023/12/19 02:02:44;;;;;;;17.15;7.53;;;8.70;99.90;;;;;;5095580;28;20046;-69
2023/12/19 02:05:09;;;;;;;;;;;8.80;99.90;;;;;;5095825;28;20090;-73
2023/12/19 02:07:35;;;;;;;19.25;8.75;;;8.70;99.90;;;;;;5095304;28;19955;-72
2023/12/19 02:10:01;;;;;;;15.97;7.50;;;8.70;99.90;;;;;;5094374;28;20581;-66
2023/12/19 02:12:27;;;;;;;15.20;7.10;;;8.70;99.90;;;;;;5095208;28;20048;-70
2023/12/19 02:14:54;;;;;;;18.00;7.60;;;8.70;99.90;;;;;;5077556;28;20437;-72
2023/12/19 02:17:21;;;;;;;15.63;6.93;;;8.70;99.90;;;;;;5095306;28;20085;-73
2023/12/19 02:19:47;;;;;;;;;;;8.70;99.90;;;;;;5095704;28;20094;-72
2023/12/19 02:22:13;;;;;;;16.45;7.95;;;8.70;99.90;;;;;;5095212;28;20342;-71
2023/12/19 02:24:40;;;;;;;15.48;7.57;;;8.70;99.90;;;;;;5095099;28;20181;-70
2023/12/19 02:27:06;;;;;;;14.48;6.75;;;8.70;99.90;;;;;;5094385;28;20399;-70
2023/12/19 02:29:32;;;;;;;;;;;8.70;99.90;;;;;;5095395;28;20561;-74
2023/12/19 02:31:58;;;;;;;14.02;6.60;;;8.70;99.90;;;;;;5094914;28;20053;-69
2023/12/19 02:34:24;;;;;;;12.95;6.45;;;8.70;99.90;;;;;;5094724;28;20495;-71
2023/12/19 02:36:50;;;;;;;12.00;6.57;;;8.70;99.90;;;;;;5094943;28;20094;-73
2023/12/19 02:39:16;;;;;;;12.27;5.83;;;8.70;99.90;;;;;;5094646;28;20379;-68
2023/12/19 02:41:42;;;;;;;11.80;6.53;;;8.60;99.90;;;;;;5093393;28;20491;-67
2023/12/19 02:44:08;;;;;;;13.50;6.37;;;8.70;99.90;;;;;;5094865;28;20127;-70
2023/12/19 02:46:33;;;;;;;13.33;6.23;;;8.70;99.90;;;;;;5094726;28;20047;-70
2023/12/19 02:48:59;;;;;;;12.37;6.63;;;8.70;99.90;;;;;;5094863;28;20448;-71
2023/12/19 02:51:26;;;;;;;12.55;6.00;;;8.70;99.90;;;;;;5094558;28;20430;-69
2023/12/19 02:53:52;;;;;;;12.98;6.38;;;8.70;99.90;;;;;;5093582;28;20048;-69
2023/12/19 02:56:18;;;;;;;12.70;5.20;;;8.70;99.90;;;;;;5094136;28;20109;-68
2023/12/19 02:58:44;;;;;;;14.43;7.07;;;8.70;99.90;;;;;;5094459;28;20483;-68
2023/12/19 03:01:09;;;;;;;11.37;5.93;;;8.70;99.90;;;;;;5093266;28;20083;-66
2023/12/19 03:03:35;;;;;;;13.98;6.53;;;8.70;99.90;;;;;;5094604;28;20040;-71
2023/12/19 03:06:01;;;;;;;12.03;5.53;;;8.70;99.90;;;;;;5094215;28;20410;-71
2023/12/19 03:08:27;;;;;;;11.45;5.40;;;8.70;99.90;;;;;;5093105;28;20101;-70
2023/12/19 03:10:53;;;;;;;13.57;6.13;;;8.70;99.90;;;;;;5094050;28;20052;-71
2023/12/19 03:13:19;;;;;;;10.90;5.83;;;8.70;99.90;;;;;;5094203;28;20040;-68
2023/12/19 03:15:44;;;;;;;14.13;6.20;;;8.70;99.90;;;;;;5094165;28;20089;-69
2023/12/19 03:18:10;;;;;;;11.80;6.00;;;8.70;99.90;;;;;;5092731;28;20094;-67
2023/12/19 03:20:36;;;;;;;11.17;5.27;;;8.70;99.90;;;;;;5094179;28;20063;-66
2023/12/19 03:23:02;;;;;;;12.13;5.87;;;8.70;99.90;;;;;;5094303;28;20044;-71
2023/12/19 03:25:28;;;;;;;11.13;5.28;;;8.70;99.90;;;;;;5093813;28;20501;-69
2023/12/19 03:27:53;;;;;;;10.77;5.53;;;8.70;99.90;;;;;;5094101;28;20051;-68
2023/12/19 03:30:19;;;;;;;12.80;6.07;;;8.70;99.90;;;;;;5094221;28;20047;-67
2023/12/19 03:32:45;;;;;;;11.50;5.70;;;8.70;99.90;;;;;;5093995;28;20048;-69
2023/12/19 03:35:12;;;;;;;12.00;5.30;;;8.70;99.90;;;;;;5094006;28;20040;-66
2023/12/19 03:37:37;;;;;;;9.93;4.50;;;8.60;99.90;;;;;;5093718;28;20040;-69
2023/12/19 03:40:05;;;;;;;9.87;5.53;;;8.70;99.90;;;;;;5093722;28;20051;-66
2023/12/19 03:42:31;;;;;;;10.18;5.32;;;8.70;99.90;;;;;;5093749;28;20480;-66
2023/12/19 03:44:56;;;;;;;10.73;5.30;;;8.60;99.90;;;;;;5093907;28;20044;-71
2023/12/19 03:47:22;;;;;;;10.37;5.00;;;8.60;99.90;;;;;;5093855;28;20044;-67
2023/12/19 03:49:48;;;;;;;10.07;5.30;;;8.60;99.90;;;;;;5092704;28;20518;-69
2023/12/19 03:52:13;;;;;;;9.97;5.27;;;8.60;99.90;;;;;;5093687;28;20051;-68
2023/12/19 03:54:39;;;;;;;9.90;5.23;;;8.60;99.90;;;;;;5093599;28;20040;-67
2023/12/19 03:57:05;;;;;;;12.77;5.93;;;8.60;99.90;;;;;;5093781;28;20502;-69
2023/12/19 03:59:30;;;;;;;10.93;5.33;;;8.60;99.90;;;;;;5093658;28;20040;-68
2023/12/19 04:01:58;;;;;;;12.37;4.93;;;8.60;99.90;;;;;;5093605;28;20395;-68
2023/12/19 04:04:25;;;;;;;10.82;5.10;;;8.60;99.90;;;;;;5093605;28;20055;-66
2023/12/19 04:06:50;;;;;;;8.55;4.72;;;8.60;99.90;;;;;;5093636;28;20136;-66
2023/12/19 04:09:16;;;;;;;9.87;3.97;;;8.60;99.90;;;;;;5092520;28;20080;-65
2023/12/19 04:11:47;;;;;;;8.75;3.85;;;8.60;99.90;;;;;;5093775;28;20442;-65
2023/12/19 04:14:14;;;;;;;9.45;4.05;;;8.60;99.90;;;;;;5094124;28;20048;-66
2023/12/19 04:16:40;;;;;;;7.90;4.03;;;8.60;99.90;;;;;;5093489;28;20040;-70
2023/12/19 04:19:06;;;;;;;8.63;4.13;;;8.60;99.90;;;;;;5093194;28;20467;-67
2023/12/19 04:21:31;;;;;;;8.50;3.53;;;8.50;99.90;;;;;;5093295;28;20048;-68
2023/12/19 04:23:57;;;;;;;7.70;3.43;;;8.60;99.90;;;;;;5092298;28;20044;-71
2023/12/19 04:26:23;;;;;;;6.50;3.13;;;8.60;99.90;;;;;;5092245;28;20044;-74
2023/12/19 04:28:48;;;;;;;6.23;3.10;;;8.60;99.90;;;;;;5093328;28;20132;-71
2023/12/19 04:31:14;;;;;;;6.37;3.03;;;8.50;99.90;;;;;;5092448;28;20490;-74
2023/12/19 04:33:40;;;;;;;6.17;2.57;;;8.50;99.90;;;;;;5093241;28;20051;-72
2023/12/19 04:36:09;;;;;;;6.57;2.83;;;8.50;99.90;;;;;;5092329;28;20044;-72
2023/12/19 04:38:36;;;;;;;5.47;2.38;;;8.50;99.90;;;;;;5093254;28;20044;-72
2023/12/19 04:41:03;;;;;;;7.20;2.90;;;8.50;99.90;;;;;;5093391;28;20056;-71
2023/12/19 04:43:28;;;;;;;5.32;2.70;;;8.50;99.90;;;;;;5093225;28;20059;-72
2023/12/19 04:45:54;;;;;;;6.27;2.73;;;8.40;99.90;;;;;;5093399;28;20040;-70
2023/12/19 04:48:20;;;;;;;5.63;2.53;;;8.50;99.90;;;;;;5093255;28;20367;-69
2023/12/19 04:50:45;;;;;;;6.50;2.27;;;8.40;99.90;;;;;;5093911;28;20051;-73
2023/12/19 04:53:11;;;;;;;5.37;2.40;;;8.50;99.90;;;;;;5097231;28;20478;-71
2023/12/19 04:55:37;;;;;;;5.87;2.40;;;8.40;99.90;;;;;;5096917;28;20118;-70
2023/12/19 04:58:02;;;;;;;5.97;2.77;;;8.40;99.90;;;;;;5096783;28;20055;-67
2023/12/19 05:00:28;;;;;;;5.53;2.57;;;8.50;99.90;;;;;;5096734;28;20084;-70
2023/12/19 05:02:54;;;;;;;5.53;2.17;;;8.40;99.90;;;;;;5096698;28;20047;-74
2023/12/19 05:05:20;;;;;;;6.73;2.83;;;8.40;99.90;;;;;;5096735;28;20048;-73
2023/12/19 05:07:46;;;;;;;5.32;2.47;;;8.40;99.90;;;;;;5095393;28;20052;-66
2023/12/19 05:10:12;;;;;;;5.53;2.30;;;8.40;99.90;;;;;;5096839;28;20051;-71
2023/12/19 05:12:38;;;;;;;6.00;2.47;;;8.50;99.90;;;;;;5096577;28;20487;-71
2023/12/19 05:15:04;;;;;;;4.55;2.25;;;8.40;99.90;;;;;;5096531;28;20044;-67
2023/12/19 05:17:30;;;;;;;6.00;2.25;;;8.40;99.90;;;;;;5094921;28;20483;-69
2023/12/19 05:19:58;;;;;;;6.32;2.42;;;8.50;99.90;;;;;;5096430;28;20071;-69
2023/12/19 05:22:24;;;;;;;5.88;2.67;;;8.40;99.90;;;;;;5096252;28;20483;-68
2023/12/19 05:24:50;;;;;;;5.27;2.30;;;8.40;99.90;;;;;;5096672;28;20099;-70
2023/12/19 05:27:16;;;;;;;6.10;2.40;;;8.40;99.90;;;;;;5096288;28;20044;-70
2023/12/19 05:29:43;;;;;;;5.00;2.17;;;8.50;99.90;;;;;;5095189;28;20051;-75
2023/12/19 05:32:08;;;;;;;6.10;2.38;;;8.40;99.90;;;;;;5095258;28;20082;-69
2023/12/19 05:34:34;;;;;;;5.77;2.30;;;8.40;99.90;;;;;;5094632;28;20048;-70
2023/12/19 05:37:00;;;;;;;5.20;2.33;;;8.50;99.90;;;;;;5096073;28;20043;-67
2023/12/19 05:39:26;;;;;;;4.70;2.00;;;8.40;99.90;;;;;;5095774;28;20403;-67
2023/12/19 05:41:56;;;;;;;5.17;2.17;;;8.50;99.90;;;;;;5095887;28;20054;-71
2023/12/19 05:44:21;;;;;;;4.05;1.73;;;8.50;99.90;;;;;;5096052;28;20408;-64
2023/12/19 05:46:47;;;;;;;4.40;2.30;;;8.40;99.90;;;;;;5095840;28;20096;-69
2023/12/19 05:49:13;;;;;;;4.60;2.10;;;8.40;99.90;;;;;;5095726;28;20123;-67
2023/12/19 05:51:39;;;;;;;4.97;2.00;;;8.50;99.90;;;;;;5094818;28;20048;-66
2023/12/19 05:54:07;;;;;;;6.22;2.05;;;8.50;99.90;;;;;;5095816;28;20044;-76
2023/12/19 05:56:33;;;;;;;5.60;2.10;;;8.50;99.90;;;;;;5095733;28;20076;-62
2023/12/19 05:59:00;;;;;;;5.10;2.10;;;8.50;99.90;;;;;;5095577;28;20164;-66
2023/12/19 06:01:25;;;;;;;5.25;2.00;;;8.50;99.90;;;;;;5095486;28;20056;-71
2023/12/19 06:03:51;;;;;;;4.60;1.90;;;8.50;99.90;;;;;;5094607;28;20048;-69
2023/12/19 06:06:17;;;;;;;5.50;1.93;;;8.50;99.90;;;;;;5095283;28;20058;-70
2023/12/19 06:08:43;;;;;;;5.47;1.50;;;8.50;99.90;;;;;;5095484;28;20040;-69
2023/12/19 06:11:12;;;;;;;4.30;1.80;;;8.50;99.90;;;;;;5095538;28;20441;-69
2023/12/19 06:13:38;;;;;;;4.10;1.80;;;8.50;99.90;;;;;;5095230;28;20514;-73
2023/12/19 06:16:07;;;;;;;6.07;2.20;;;8.50;99.90;;;;;;5095167;28;20081;-70
2023/12/19 06:18:32;;;;;;;4.68;1.80;;;8.50;99.90;;;;;;5095020;28;20056;-70
2023/12/19 06:21:01;;;;;;;5.03;2.10;;;8.50;99.90;;;;;;5095168;28;20056;-64
2023/12/19 06:23:27;;;;;;;4.60;1.73;;;8.60;99.90;;;;;;5094979;28;20548;-67
2023/12/19 06:25:54;;;;;;;5.07;1.70;;;8.50;99.90;;;;;;5094519;28;20060;-63
2023/12/19 06:28:20;;;;;;;4.65;2.10;;;8.60;99.90;;;;;;5095033;28;20286;-68
2023/12/19 06:30:45;;;;;;;5.73;2.30;;;8.60;99.90;;;;;;5095108;28;20161;-70
2023/12/19 06:33:11;;;;;;;4.33;1.60;;;8.60;99.90;;;;;;5094905;28;20048;-68
2023/12/19 06:35:43;;;;;;;4.90;2.13;;;8.60;99.90;;;;;;5094962;28;20048;-68
2023/12/19 06:38:09;;;;;;;5.50;2.35;;;8.60;99.90;;;;;;5094895;28;20047;-66
2023/12/19 06:40:36;;;;;;;4.10;1.83;;;8.60;99.90;;;;;;5094695;28;20455;-72
2023/12/19 06:43:05;;;;;;;4.25;1.60;;;8.60;99.90;;;;;;5094765;28;20181;-66
2023/12/19 06:45:33;;;;;;;4.47;1.83;;;8.60;99.90;;;;;;5093609;28;20130;-66
2023/12/19 06:48:01;;;;;;;5.63;2.08;;;8.60;99.90;;;;;;5094722;28;20048;-70
2023/12/19 06:50:27;;;;;;;5.28;2.05;;;8.60;99.90;;;;;;5094630;28;20036;-73
2023/12/19 06:52:54;;;;;;;4.63;2.00;;;8.60;99.90;;;;;;5093753;28;20047;-72
2023/12/19 06:55:20;;;;;;;5.13;2.33;;;8.60;99.90;;;;;;5094460;28;20056;-71
2023/12/19 06:57:46;;;;;;;5.32;1.90;;;8.60;99.90;;;;;;5094622;28;20044;-74
2023/12/19 07:00:13;;;;;;;5.00;2.22;;;8.70;99.90;;;;;;5094367;28;20040;-73
2023/12/19 07:02:39;;;;;;;5.47;2.40;;;8.60;99.90;;;;;;5094445;28;20087;-73
2023/12/19 07:05:05;;;;;;;5.32;2.20;;;8.60;99.90;;;;;;5094365;28;20054;-69
2023/12/19 07:07:31;;;;;;;6.13;2.58;;;8.60;99.90;;;;;;5094625;28;20122;-75
2023/12/19 07:09:57;;;;;;;5.93;2.40;;;8.70;99.90;;;;;;5094340;28;20055;-69
2023/12/19 07:12:22;;;;;;;6.27;2.87;;;8.60;99.90;;;;;;5094209;28;20052;-67
2023/12/19 07:14:49;;;;;;;6.20;2.57;;;8.70;99.90;;;;;;5093888;28;20089;-70
2023/12/19 07:17:15;;;;;;;5.63;2.30;;;8.70;99.90;;;;;;5094109;28;20044;-72
2023/12/19 07:19:41;;;;;;;5.30;2.07;;;8.70;99.90;;;;;;5094187;28;20048;-70
2023/12/19 07:22:06;;;;;;;5.13;2.45;;;8.60;99.90;;;;;;5093088;28;20487;-71
2023/12/19 07:24:32;;;;;;;5.77;2.33;;;8.70;99.90;;;;;;5094148;28;20076;-75
2023/12/19 07:26:58;;;;;;;6.20;2.50;;;8.70;99.90;;;;;;5094146;28;20471;-71
2023/12/19 07:29:24;;;;;;;5.22;2.15;;;8.70;99.90;;;;;;5094049;28;20065;-76
2023/12/19 07:31:51;;;;;;;5.60;2.47;;;8.70;99.90;;;;;;5093076;28;20043;-72
2023/12/19 07:34:17;;;;;;;4.40;2.05;;;8.70;99.90;;;;;;5094040;28;20055;-76
2023/12/19 07:36:43;;;;;;;4.80;2.15;;;8.70;99.90;;;;;;5093982;28;20054;-66
2023/12/19 07:39:10;;;;;;;4.53;1.90;;;8.70;99.90;;;;;;5093951;28;20045;-71
2023/12/19 07:41:35;;;;;;;4.18;1.70;;;8.70;99.90;;;;;;5093959;28;20101;-76
2023/12/19 07:44:09;;;;;;;5.43;2.07;;;8.70;99.90;;;;;;5093762;28;20407;-77
2023/12/19 07:46:40;;;;;;;5.20;2.10;;;8.70;99.90;;;;;;5093957;28;20114;-75
2023/12/19 07:49:05;;;;;;;4.55;1.75;;;8.70;99.90;;;;;;5093657;28;20486;-71
2023/12/19 07:51:31;;;;;;;4.73;1.97;;;8.70;99.90;;;;;;5093843;28;20047;-72
2023/12/19 07:53:57;;;;;;;3.83;1.60;;;8.70;99.90;;;;;;5093720;28;20483;-67
2023/12/19 07:56:23;;;;;;;3.67;1.57;;;8.70;99.90;;;;;;5093626;28;20127;-67
2023/12/19 07:58:48;;;;;;;3.13;1.40;;;8.70;99.90;;;;;;5092616;28;20052;-64
2023/12/19 08:01:14;;;;;;;6.67;1.77;;;8.70;99.90;;;;;;5093762;28;20048;-67
2023/12/19 08:03:42;;;;;;;5.15;2.13;;;8.70;99.90;;;;;;5094077;28;20044;-69
2023/12/19 08:06:08;;;;;;;4.00;1.73;;;8.70;99.90;;;;;;5093634;28;20044;-64
2023/12/19 08:08:33;;;;;;;4.53;2.00;;;8.70;99.90;;;;;;5093792;28;20044;-69
2023/12/19 08:10:59;;;;;;;5.13;1.67;;;8.70;99.90;;;;;;5092291;28;20772;-68
2023/12/19 08:13:26;;;;;;;5.53;2.37;;;8.70;99.90;;;;;;5093357;28;20071;-70
2023/12/19 08:15:52;;;;;;;;;;;8.70;99.90;;;;;;5094023;28;20059;-70
2023/12/19 08:18:18;;;;;;;4.25;1.63;;;8.70;99.90;;;;;;5093440;28;19920;-69
2023/12/19 08:20:45;;;;;;;3.92;1.73;;;8.70;99.90;;;;;;5092182;28;20090;-68
2023/12/19 08:23:11;;;;;;;5.80;2.75;;;8.70;99.90;;;;;;5093427;28;20426;-70
2023/12/19 08:25:37;;;;;;;5.70;2.37;;;8.70;99.90;;;;;;5094205;28;20082;-72
2023/12/19 08:28:04;;;;;;;;;;;8.70;99.90;;;;;;5096797;28;20321;-73
2023/12/19 08:30:30;;;;;;;4.68;2.03;;;8.80;99.90;;;;;;5097450;28;19919;-73
2023/12/19 08:32:57;;;;;;;5.88;2.08;;;8.70;99.90;;;;;;5097328;28;20127;-73
2023/12/19 08:35:23;;;;;;;5.32;1.88;;;8.80;99.90;;;;;;5096086;28;20059;-72
2023/12/19 08:37:49;;;;;;;3.67;1.35;;;8.80;99.90;;;;;;5097194;28;20046;-76
2023/12/19 08:40:15;;;;;;;5.32;2.13;;;8.80;99.90;;;;;;5097203;28;20055;-73
2023/12/19 08:42:41;;;;;;;4.93;1.60;;;8.80;99.90;;;;;;5097153;28;20054;-73
2023/12/19 08:45:17;;;;;;;7.80;3.47;;;8.80;99.90;;;;;;5097394;28;20040;-74
2023/12/19 08:47:44;;;;;;;6.60;2.50;;;8.80;99.90;;;;;;5097458;28;20500;-73
2023/12/19 08:50:11;;;;;;;4.63;1.85;;;8.80;99.90;;;;;;5097096;28;20506;-73
2023/12/19 08:52:37;;;;;;;5.18;2.17;;;8.80;99.90;;;;;;5096861;28;20433;-77
2023/12/19 08:55:10;;;;;;;4.30;1.88;;;8.80;99.90;;;;;;5096740;28;20054;-73
2023/12/19 08:57:42;;;;;;;4.35;1.58;;;8.80;99.90;;;;;;5095770;28;20048;-70
2023/12/19 09:00:15;;;;;;;4.75;2.20;;;8.80;99.90;;;;;;5096876;28;20044;-73
2023/12/19 09:02:44;;;;;;;4.45;1.92;;;8.90;99.90;;;;;;5096942;28;20518;-73
2023/12/19 09:05:12;;;;;;;5.32;2.60;;;8.80;99.90;;;;;;5096721;28;20502;-75
2023/12/19 09:07:38;;;;;;;5.53;2.47;;;8.90;99.90;;;;;;5096417;28;20040;-76
2023/12/19 09:10:05;;;;;;;5.38;2.67;;;8.90;99.90;;;;;;5096649;28;20388;-65
2023/12/19 09:12:32;;;;;;;7.78;2.92;;;8.90;99.90;;;;;;5095835;28;20051;-78
2023/12/19 09:14:57;;;;;;;;;;;8.90;99.90;;;;;;5097016;28;20051;-75
2023/12/19 09:17:23;;;;;;;6.75;3.00;;;8.90;99.90;;;;;;5095198;28;19920;-74
2023/12/19 09:19:48;;;;;;;6.73;3.33;;;8.90;99.90;;;;;;5096203;28;20062;-72
2023/12/19 09:22:14;;;;;;;6.50;3.03;;;8.90;99.90;;;;;;5095068;28;20048;-78
2023/12/19 09:24:40;;;;;;;7.23;3.50;;;8.90;99.90;;;;;;5096478;28;20445;-66
2023/12/19 09:27:05;;;;;;;7.40;3.40;;;8.90;99.90;;;;;;5096248;28;20044;-71
2023/12/19 09:29:32;;;;;;;6.97;3.50;;;9.00;99.90;;;;;;5095274;28;20048;-76
2023/12/19 09:32:00;;;;;;;6.38;3.13;;;8.90;99.90;;;;;;5096236;28;20051;-74
2023/12/19 09:34:26;;;;;;;6.45;3.25;;;9.00;99.90;;;;;;5096163;28;20051;-76
2023/12/19 09:36:51;;;;;;;7.97;3.80;;;9.00;99.90;;;;;;5095717;28;20043;-74
2023/12/19 09:39:17;;;;;;;7.40;3.50;;;9.00;99.90;;;;;;5096161;28;20044;-70
2023/12/19 09:41:45;;;;;;;6.10;3.27;;;9.00;99.90;;;;;;5095150;28;20139;-72
2023/12/19 09:44:11;;;;;;;6.28;2.95;;;8.90;99.90;;;;;;5096049;28;20390;-71
2023/12/19 09:46:37;;;;;;;5.70;2.75;;;9.00;99.90;;;;;;5096035;28;20044;-75
2023/12/19 09:49:03;;;;;;;6.77;2.97;;;9.00;99.90;;;;;;5095976;28;20131;-68
2023/12/19 09:51:32;;;;;;;7.10;3.30;;;9.10;99.90;;;;;;5095608;28;20491;-76
2023/12/19 09:54:00;;;;;;;6.60;3.00;;;9.10;99.90;;;;;;5096410;28;20102;-73
2023/12/19 09:56:27;;;;;;;7.00;3.05;;;9.10;99.90;;;;;;5094725;28;20479;-71
2023/12/19 09:58:58;;;;;;;6.15;2.67;;;9.10;99.90;;;;;;5095934;28;20044;-76
2023/12/19 10:01:24;;;;;;;7.07;3.20;;;9.20;99.90;;;;;;5094725;28;20131;-70
2023/12/19 10:03:55;;;;;;;7.87;3.30;;;9.10;99.90;;;;;;5077760;28;20131;-71
2023/12/19 10:06:24;;;;;;;6.97;3.22;;;9.20;99.90;;;;;;5095621;28;20050;-68
2023/12/19 10:08:52;;;;;;;5.63;2.92;;;9.20;99.90;;;;;;5095444;28;20562;-69
2023/12/19 10:11:19;;;;;;;6.05;2.63;;;9.20;99.90;;;;;;5095487;28;20471;-73
2023/12/19 10:13:48;;;;;;;7.78;3.17;;;9.20;99.90;;;;;;5095379;28;20050;-72
2023/12/19 10:16:20;;;;;;;6.43;2.90;;;9.20;99.90;;;;;;5093849;28;20087;-73
2023/12/19 10:18:56;;;;;;;5.88;2.55;;;9.30;99.90;;;;;;5094115;28;20067;-71
2023/12/19 10:21:23;;;;;;;5.20;2.42;;;9.30;99.90;;;;;;5095265;28;20121;-73
2023/12/19 10:23:48;;;;;;;6.10;2.80;;;9.20;99.90;;;;;;5095287;28;20127;-74
2023/12/19 10:26:15;;;;;;;6.87;3.00;;;9.30;99.90;;;;;;5095140;28;20502;-74
2023/12/19 10:28:41;;;;;;;6.00;2.75;;;9.30;99.90;;;;;;5095113;28;20499;-75
2023/12/19 10:31:06;;;;;;;6.50;2.70;;;9.30;99.90;;;;;;5093783;28;20051;-75
2023/12/19 10:33:43;;;;;;;6.40;3.13;;;9.30;99.90;;;;;;5095095;28;20048;-71
2023/12/19 10:36:22;;;;;;;6.38;3.15;;;9.30;99.90;;;;;;5094952;28;20051;-74
2023/12/19 10:38:48;;;;;;;6.78;3.08;;;9.30;99.90;;;;;;5095141;28;20118;-67
2023/12/19 10:41:34;;;;;;;7.90;3.67;;;9.30;99.90;;;;;;5094681;28;20048;-71
2023/12/19 10:44:01;;;;;;;7.22;3.80;;;9.30;99.90;;;;;;5094864;28;20044;-72
2023/12/19 10:46:31;;;;;;;5.75;2.63;;;9.40;99.90;;;;;;5094778;28;20052;-73
2023/12/19 10:49:02;;;;;;;6.65;2.65;;;9.40;99.90;;;;;;5094342;28;20044;-74
2023/12/19 10:51:30;;;;;;;6.65;2.92;;;9.40;99.90;;;;;;5094513;28;20108;-73
2023/12/19 10:54:10;;;;;;;6.60;2.95;;;9.40;99.90;;;;;;5094079;28;20043;-73
2023/12/19 10:57:02;;;;;;;6.72;3.28;;;9.40;99.90;;;;;;5094338;28;20397;-73
2023/12/19 10:59:38;;;;;;;6.60;3.15;;;9.40;99.90;;;;;;5094531;28;20048;-73
2023/12/19 11:02:09;;;;;;;5.70;2.78;;;9.40;99.90;;;;;;5094555;28;20048;-77
2023/12/19 11:04:40;;;;;;;6.18;2.55;;;9.40;99.90;;;;;;5094256;28;20086;-75
2023/12/19 11:07:13;;;;;;;6.63;2.70;;;9.40;99.90;;;;;;5093304;28;20039;-69
2023/12/19 11:09:43;;;;;;;6.97;3.47;;;9.40;99.90;;;;;;5094600;28;20076;-75
2023/12/19 11:12:10;;;;;;;6.50;3.08;;;9.50;99.90;;;;;;5094433;28;20048;-75
2023/12/19 11:14:36;;;;;;;6.85;2.60;;;9.50;99.90;;;;;;5094284;28;20084;-73
2023/12/19 11:17:26;;;;;;;7.03;3.03;;;9.50;99.90;;;;;;5094697;28;20044;-72
2023/12/19 11:20:09;;;;;;;6.72;2.70;;;9.60;99.90;;;;;;5094065;28;20143;-73
2023/12/19 11:22:48;;;;;;;7.20;2.60;;;9.60;99.90;;;;;;5094066;28;20047;-66
2023/12/19 11:25:31;;;;;;;6.68;2.80;;;9.60;99.90;;;;;;5093260;28;20059;-75
2023/12/19 11:28:01;;;;;;;6.25;3.10;;;9.60;99.90;;;;;;5094241;28;20044;-75
2023/12/19 11:30:40;;;;;;;6.72;2.90;;;9.60;99.90;;;;;;5094012;28;20090;-74
2023/12/19 11:33:07;;;;;;;7.35;3.30;;;9.60;99.90;;;;;;5093786;28;20505;-74
2023/12/19 11:35:33;;;;;;;;;;;9.60;99.90;;;;;;5094388;28;20089;-74
2023/12/19 11:38:21;;;;;;;6.95;3.33;;;9.60;99.90;;;;;;5093646;28;19924;-74
2023/12/19 11:40:48;;;;;;;6.82;3.33;;;9.60;99.90;;;;;;5094234;28;20105;-72
2023/12/19 11:43:31;;;;;;;7.93;3.60;;;9.60;99.90;;;;;;5092825;28;20106;-71
2023/12/19 11:46:10;;;;;;;8.45;3.75;;;9.60;99.90;;;;;;5093811;28;20094;-67
2023/12/19 11:48:37;;;;;;;7.20;3.38;;;9.60;99.90;;;;;;5093876;28;20094;-73
2023/12/19 11:51:04;;;;;;;6.90;3.28;;;9.60;99.90;;;;;;5075945;28;20129;-68
2023/12/19 11:53:30;;;;;;;7.20;3.30;;;9.60;99.90;;;;;;5076122;28;20446;-69
2023/12/19 11:56:10;;;;;;;6.43;2.95;;;9.70;99.90;;;;;;5092989;28;20048;-66
2023/12/19 11:58:51;;;;;;;5.90;2.90;;;9.70;99.90;;;;;;5093488;28;20040;-70
2023/12/19 12:01:20;;;;;;;6.10;2.78;;;9.70;99.90;;;;;;5096490;28;20399;-67
2023/12/19 12:03:47;;;;;;;7.20;3.08;;;9.70;99.90;;;;;;5097878;28;20043;-66
2023/12/19 12:06:12;;;;;;;;;;;9.70;99.90;;;;;;5098228;28;20509;-68
2023/12/19 12:08:39;;;;;;;6.53;3.00;;;9.60;99.90;;;;;;5096920;28;19924;-67
2023/12/19 12:11:07;;;;;;;6.50;2.85;;;9.70;99.90;;;;;;5097830;28;20111;-66
2023/12/19 12:13:34;;;;;;;6.50;3.13;;;9.60;99.90;;;;;;5096783;28;20044;-68
2023/12/19 12:16:01;;;;;;;6.72;3.30;;;9.70;99.90;;;;;;5097764;28;20055;-68
2023/12/19 12:18:28;;;;;;;;;;;9.70;99.90;;;;;;5098013;28;20138;-68
2023/12/19 12:20:55;;;;;;;7.28;3.17;;;9.70;99.90;;;;;;5097566;28;20049;-70
2023/12/19 12:23:21;;;;;;;6.28;2.80;;;9.70;99.90;;;;;;5096537;28;20494;-66
2023/12/19 12:25:55;;;;;;;6.68;3.22;;;9.60;99.90;;;;;;5097342;28;20044;-69
2023/12/19 12:28:25;;;;;;;6.40;3.00;;;9.60;99.90;;;;;;5097489;28;20051;-66
2023/12/19 12:30:55;;;;;;;6.82;2.83;;;9.60;99.90;;;;;;5097562;28;20058;-66
2023/12/19 12:33:24;;;;;;;8.25;3.88;;;9.60;99.90;;;;;;5097456;28;20503;-67
2023/12/19 12:35:49;;;;;;;7.85;3.38;;;9.60;99.90;;;;;;5097420;28;20048;-66
2023/12/19 12:38:18;;;;;;;7.67;3.47;;;9.60;99.90;;;;;;5096954;28;20387;-68
2023/12/19 12:40:56;;;;;;;5.68;2.65;;;9.60;99.90;;;;;;5097217;28;20048;-68
2023/12/19 12:43:39;;;;;;;5.43;2.40;;;9.60;99.90;;;;;;5097187;28;20138;-63
2023/12/19 12:46:11;;;;;;;5.90;2.80;;;9.60;99.90;;;;;;5097222;28;20399;-69
2023/12/19 12:48:43;;;;;;;6.07;2.50;;;9.60;99.90;;;;;;5097044;28;20040;-70
2023/12/19 12:51:09;;;;;;;7.68;3.00;;;9.60;99.90;;;;;;5097069;28;20047;-67
2023/12/19 12:53:35;;;;;;;6.70;3.00;;;9.70;99.90;;;;;;5096852;28;20116;-70
2023/12/19 12:56:18;;;;;;;7.57;3.30;;;9.60;99.90;;;;;;5097122;28;20556;-69